sensor_id;sensor_type;location;lat;lon;timestamp;pressure;altitude;pressure_sealevel;temperature;humidity
61324;BME280;47203;48.428;11.974;2023-03-01T00:00:40;97423.72;;;8.53;37.08
61324;BME280;47203;48.428;11.974;2023-03-01T00:02:50;97424.50;;;8.53;37.12
61324;BME280;47203;48.428;11.974;2023-03-01T00:04:54;97422.44;;;8.55;37.11
61324;BME280;47203;48.428;11.974;2023-03-01T00:06:59;97418.78;;;8.56;37.02
61324;BME280;47203;48.428;11.974;2023-03-01T00:09:04;97417.19;;;8.55;37.13
61324;BME280;47203;48.428;11.974;2023-03-01T00:11:10;97413.53;;;8.56;37.03
61324;BME280;47203;48.428;11.974;2023-03-01T00:13:16;97418.78;;;8.56;37.22
61324;BME280;47203;48.428;11.974;2023-03-01T00:15:21;97414.31;;;8.57;37.18
61324;BME280;47203;48.428;11.974;2023-03-01T00:17:27;97410.13;;;8.56;37.00
61324;BME280;47203;48.428;11.974;2023-03-01T00:19:34;97418.00;;;8.56;37.05
61324;BME280;47203;48.428;11.974;2023-03-01T00:21:39;97417.41;;;8.54;37.27
61324;BME280;47203;48.428;11.974;2023-03-01T00:23:43;97408.75;;;8.53;36.93
61324;BME280;47203;48.428;11.974;2023-03-01T00:25:50;97403.75;;;8.52;37.00
61324;BME280;47203;48.428;11.974;2023-03-01T00:27:54;97412.41;;;8.52;37.00
61324;BME280;47203;48.428;11.974;2023-03-01T00:29:59;97406.94;;;8.54;37.27
61324;BME280;47203;48.428;11.974;2023-03-01T00:32:04;97398.03;;;8.55;36.98
61324;BME280;47203;48.428;11.974;2023-03-01T00:34:09;97402.25;;;8.56;37.03
61324;BME280;47203;48.428;11.974;2023-03-01T00:36:16;97397.25;;;8.54;37.08
61324;BME280;47203;48.428;11.974;2023-03-01T00:38:21;97400.88;;;8.53;37.22
61324;BME280;47203;48.428;11.974;2023-03-01T00:40:26;97396.66;;;8.52;37.19
61324;BME280;47203;48.428;11.974;2023-03-01T00:42:31;97396.44;;;8.54;37.13
61324;BME280;47203;48.428;11.974;2023-03-01T00:44:35;97397.00;;;8.56;37.18
61324;BME280;47203;48.428;11.974;2023-03-01T00:46:39;97395.97;;;8.57;37.26
61324;BME280;47203;48.428;11.974;2023-03-01T00:48:44;97393.91;;;8.59;37.15
61324;BME280;47203;48.428;11.974;2023-03-01T00:50:49;97386.81;;;8.60;36.99
61324;BME280;47203;48.428;11.974;2023-03-01T00:52:56;97379.78;;;8.60;36.92
61324;BME280;47203;48.428;11.974;2023-03-01T00:55:01;97388.44;;;8.61;37.08
61324;BME280;47203;48.428;11.974;2023-03-01T00:57:06;97385.81;;;8.61;37.10
61324;BME280;47203;48.428;11.974;2023-03-01T00:59:10;97389.22;;;8.61;36.95
61324;BME280;47203;48.428;11.974;2023-03-01T01:01:16;97384.19;;;8.60;37.10
61324;BME280;47203;48.428;11.974;2023-03-01T01:03:23;97373.94;;;8.58;36.88
61324;BME280;47203;48.428;11.974;2023-03-01T01:05:28;97375.19;;;8.55;37.15
61324;BME280;47203;48.428;11.974;2023-03-01T01:07:33;97377.81;;;8.55;37.19
61324;BME280;47203;48.428;11.974;2023-03-01T01:09:41;97373.06;;;8.52;37.16
61324;BME280;47203;48.428;11.974;2023-03-01T01:11:45;97373.53;;;8.49;37.17
61324;BME280;47203;48.428;11.974;2023-03-01T01:13:50;97369.28;;;8.48;36.93
61324;BME280;47203;48.428;11.974;2023-03-01T01:15:54;97365.88;;;8.48;37.29
61324;BME280;47203;48.428;11.974;2023-03-01T01:18:04;97371.91;;;8.48;37.01
61324;BME280;47203;48.428;11.974;2023-03-01T01:20:09;97368.28;;;8.49;36.94
61324;BME280;47203;48.428;11.974;2023-03-01T01:22:14;97360.41;;;8.49;37.14
61324;BME280;47203;48.428;11.974;2023-03-01T01:24:19;97368.50;;;8.48;36.88
61324;BME280;47203;48.428;11.974;2023-03-01T01:26:27;97356.66;;;8.45;36.90
61324;BME280;47203;48.428;11.974;2023-03-01T01:28:32;97357.31;;;8.41;37.04
61324;BME280;47203;48.428;11.974;2023-03-01T01:30:37;97353.56;;;8.36;37.18
61324;BME280;47203;48.428;11.974;2023-03-01T01:32:41;97357.25;;;8.35;37.25
61324;BME280;47203;48.428;11.974;2023-03-01T01:34:46;97349.84;;;8.32;36.93
61324;BME280;47203;48.428;11.974;2023-03-01T01:36:51;97353.72;;;8.30;36.97
61324;BME280;47203;48.428;11.974;2023-03-01T01:38:56;97351.56;;;8.27;37.07
61324;BME280;47203;48.428;11.974;2023-03-01T01:41:01;97353.06;;;8.23;37.08
61324;BME280;47203;48.428;11.974;2023-03-01T01:43:10;97347.72;;;8.17;37.26
61324;BME280;47203;48.428;11.974;2023-03-01T01:45:32;97343.16;;;8.13;37.10
61324;BME280;47203;48.428;11.974;2023-03-01T01:47:36;97343.63;;;8.10;37.17
61324;BME280;47203;48.428;11.974;2023-03-01T01:49:41;97343.31;;;8.06;37.24
61324;BME280;47203;48.428;11.974;2023-03-01T01:51:47;97347.19;;;8.03;37.19
61324;BME280;47203;48.428;11.974;2023-03-01T01:53:55;97349.22;;;8.01;37.52
61324;BME280;47203;48.428;11.974;2023-03-01T01:56:02;97347.06;;;7.98;37.17
61324;BME280;47203;48.428;11.974;2023-03-01T01:58:11;97345.50;;;7.97;37.21
61324;BME280;47203;48.428;11.974;2023-03-01T02:00:19;97343.13;;;7.96;37.36
61324;BME280;47203;48.428;11.974;2023-03-01T02:02:24;97340.69;;;7.94;37.26
61324;BME280;47203;48.428;11.974;2023-03-01T02:04:29;97339.13;;;7.93;37.37
61324;BME280;47203;48.428;11.974;2023-03-01T02:06:35;97338.53;;;7.91;37.43
61324;BME280;47203;48.428;11.974;2023-03-01T02:08:41;97342.44;;;7.89;37.36
61324;BME280;47203;48.428;11.974;2023-03-01T02:10:46;97340.06;;;7.87;37.28
61324;BME280;47203;48.428;11.974;2023-03-01T02:12:53;97332.41;;;7.85;37.59
61324;BME280;47203;48.428;11.974;2023-03-01T02:15:00;97320.56;;;7.83;37.60
61324;BME280;47203;48.428;11.974;2023-03-01T02:17:05;97320.00;;;7.81;37.27
61324;BME280;47203;48.428;11.974;2023-03-01T02:19:12;97319.44;;;7.79;37.41
61324;BME280;47203;48.428;11.974;2023-03-01T02:21:26;97329.13;;;7.78;37.49
61324;BME280;47203;48.428;11.974;2023-03-01T02:23:33;97322.53;;;7.76;37.27
61324;BME280;47203;48.428;11.974;2023-03-01T02:25:44;97329.00;;;7.73;37.42
61324;BME280;47203;48.428;11.974;2023-03-01T02:27:52;97320.84;;;7.69;37.63
61324;BME280;47203;48.428;11.974;2023-03-01T02:30:02;97324.94;;;7.65;37.61
61324;BME280;47203;48.428;11.974;2023-03-01T02:32:07;97323.56;;;7.63;37.56
61324;BME280;47203;48.428;11.974;2023-03-01T02:34:10;97325.63;;;7.61;37.57
61324;BME280;47203;48.428;11.974;2023-03-01T02:36:17;97327.66;;;7.59;37.56
61324;BME280;47203;48.428;11.974;2023-03-01T02:38:23;97321.03;;;7.56;37.48
61324;BME280;47203;48.428;11.974;2023-03-01T02:40:28;97311.84;;;7.54;37.57
61324;BME280;47203;48.428;11.974;2023-03-01T02:42:35;97316.50;;;7.51;37.66
61324;BME280;47203;48.428;11.974;2023-03-01T02:44:40;97319.34;;;7.50;37.80
61324;BME280;47203;48.428;11.974;2023-03-01T02:46:49;97321.97;;;7.50;37.75
61324;BME280;47203;48.428;11.974;2023-03-01T02:48:55;97316.19;;;7.48;37.49
61324;BME280;47203;48.428;11.974;2023-03-01T02:51:03;97311.97;;;7.47;37.54
61324;BME280;47203;48.428;11.974;2023-03-01T02:53:10;97315.03;;;7.44;37.46
61324;BME280;47203;48.428;11.974;2023-03-01T02:55:16;97317.09;;;7.42;37.48
61324;BME280;47203;48.428;11.974;2023-03-01T02:57:21;97310.25;;;7.41;37.49
61324;BME280;47203;48.428;11.974;2023-03-01T02:59:27;97306.28;;;7.38;37.62
61324;BME280;47203;48.428;11.974;2023-03-01T03:01:33;97320.59;;;7.36;37.52
61324;BME280;47203;48.428;11.974;2023-03-01T03:03:44;97307.97;;;7.32;37.49
61324;BME280;47203;48.428;11.974;2023-03-01T03:05:49;97307.88;;;7.27;37.64
61324;BME280;47203;48.428;11.974;2023-03-01T03:07:53;97310.94;;;7.24;37.78
61324;BME280;47203;48.428;11.974;2023-03-01T03:09:58;97306.16;;;7.21;37.68
61324;BME280;47203;48.428;11.974;2023-03-01T03:12:02;97303.19;;;7.18;37.52
61324;BME280;47203;48.428;11.974;2023-03-01T03:14:09;97305.47;;;7.14;37.68
61324;BME280;47203;48.428;11.974;2023-03-01T03:16:16;97300.69;;;7.11;37.58
61324;BME280;47203;48.428;11.974;2023-03-01T03:18:21;97298.97;;;7.05;37.76
61324;BME280;47203;48.428;11.974;2023-03-01T03:20:30;97296.81;;;7.02;37.57
61324;BME280;47203;48.428;11.974;2023-03-01T03:22:34;97297.03;;;7.00;37.62
61324;BME280;47203;48.428;11.974;2023-03-01T03:24:39;97299.88;;;6.98;37.59
61324;BME280;47203;48.428;11.974;2023-03-01T03:26:43;97297.72;;;6.95;37.56
61324;BME280;47203;48.428;11.974;2023-03-01T03:28:48;97310.22;;;6.93;37.80
61324;BME280;47203;48.428;11.974;2023-03-01T03:30:52;97309.66;;;6.91;37.85
61324;BME280;47203;48.428;11.974;2023-03-01T03:32:57;97302.28;;;6.88;37.71
61324;BME280;47203;48.428;11.974;2023-03-01T03:35:02;97300.66;;;6.87;37.69
61324;BME280;47203;48.428;11.974;2023-03-01T03:37:13;97299.06;;;6.86;37.72
61324;BME280;47203;48.428;11.974;2023-03-01T03:39:30;97300.88;;;6.86;37.84
61324;BME280;47203;48.428;11.974;2023-03-01T03:41:36;97297.50;;;6.85;37.72
61324;BME280;47203;48.428;11.974;2023-03-01T03:43:40;97295.88;;;6.84;37.89
61324;BME280;47203;48.428;11.974;2023-03-01T03:45:45;97289.88;;;6.84;37.90
61324;BME280;47203;48.428;11.974;2023-03-01T03:47:50;97286.66;;;6.81;37.73
61324;BME280;47203;48.428;11.974;2023-03-01T03:49:55;97285.09;;;6.80;37.81
61324;BME280;47203;48.428;11.974;2023-03-01T03:51:59;97288.72;;;6.79;37.69
61324;BME280;47203;48.428;11.974;2023-03-01T03:54:06;97282.91;;;6.77;37.88
61324;BME280;47203;48.428;11.974;2023-03-01T03:56:12;97279.94;;;6.74;37.62
61324;BME280;47203;48.428;11.974;2023-03-01T03:58:17;97275.94;;;6.71;37.97
61324;BME280;47203;48.428;11.974;2023-03-01T04:00:21;97279.81;;;6.69;37.69
61324;BME280;47203;48.428;11.974;2023-03-01T04:02:26;97275.63;;;6.68;37.94
61324;BME280;47203;48.428;11.974;2023-03-01T04:04:31;97275.63;;;6.68;37.85
61324;BME280;47203;48.428;11.974;2023-03-01T04:06:35;97275.03;;;6.66;37.99
61324;BME280;47203;48.428;11.974;2023-03-01T04:08:40;97270.03;;;6.64;37.70
61324;BME280;47203;48.428;11.974;2023-03-01T04:10:48;97271.28;;;6.61;37.86
61324;BME280;47203;48.428;11.974;2023-03-01T04:12:52;97267.31;;;6.59;37.73
61324;BME280;47203;48.428;11.974;2023-03-01T04:14:57;97265.94;;;6.56;37.90
61324;BME280;47203;48.428;11.974;2023-03-01T04:17:01;97271.38;;;6.55;37.66
61324;BME280;47203;48.428;11.974;2023-03-01T04:19:06;97271.84;;;6.52;37.91
61324;BME280;47203;48.428;11.974;2023-03-01T04:21:11;97270.47;;;6.49;37.67
61324;BME280;47203;48.428;11.974;2023-03-01T04:23:16;97271.69;;;6.46;37.66
61324;BME280;47203;48.428;11.974;2023-03-01T04:25:22;97272.72;;;6.45;37.89
61324;BME280;47203;48.428;11.974;2023-03-01T04:27:29;97268.75;;;6.43;37.80
61324;BME280;47203;48.428;11.974;2023-03-01T04:29:34;97275.78;;;6.42;37.92
61324;BME280;47203;48.428;11.974;2023-03-01T04:31:38;97274.97;;;6.42;37.80
61324;BME280;47203;48.428;11.974;2023-03-01T04:33:43;97272.59;;;6.40;37.98
61324;BME280;47203;48.428;11.974;2023-03-01T04:35:48;97275.66;;;6.37;37.93
61324;BME280;47203;48.428;11.974;2023-03-01T04:37:53;97265.41;;;6.36;37.76
61324;BME280;47203;48.428;11.974;2023-03-01T04:39:57;97271.09;;;6.33;37.81
61324;BME280;47203;48.428;11.974;2023-03-01T04:42:01;97266.09;;;6.31;37.89
61324;BME280;47203;48.428;11.974;2023-03-01T04:44:08;97272.56;;;6.28;37.83
61324;BME280;47203;48.428;11.974;2023-03-01T04:46:15;97268.56;;;6.26;37.70
61324;BME280;47203;48.428;11.974;2023-03-01T04:48:19;97268.78;;;6.24;37.69
61324;BME280;47203;48.428;11.974;2023-03-01T04:50:24;97271.84;;;6.21;37.89
61324;BME280;47203;48.428;11.974;2023-03-01T04:52:28;97253.78;;;6.20;38.07
61324;BME280;47203;48.428;11.974;2023-03-01T04:54:34;97261.84;;;6.18;37.80
61324;BME280;47203;48.428;11.974;2023-03-01T04:56:38;97261.25;;;6.16;37.90
61324;BME280;47203;48.428;11.974;2023-03-01T04:58:42;97262.28;;;6.15;37.90
61324;BME280;47203;48.428;11.974;2023-03-01T05:00:51;97254.66;;;6.14;37.83
61324;BME280;47203;48.428;11.974;2023-03-01T05:02:56;97255.13;;;6.10;38.03
61324;BME280;47203;48.428;11.974;2023-03-01T05:05:01;97250.31;;;6.07;38.11
61324;BME280;47203;48.428;11.974;2023-03-01T05:07:07;97249.75;;;6.05;37.78
61324;BME280;47203;48.428;11.974;2023-03-01T05:09:11;97250.97;;;6.03;37.95
61324;BME280;47203;48.428;11.974;2023-03-01T05:11:16;97247.00;;;6.00;37.78
61324;BME280;47203;48.428;11.974;2023-03-01T05:13:20;97250.84;;;5.98;37.82
61324;BME280;47203;48.428;11.974;2023-03-01T05:15:25;97252.06;;;5.95;38.00
61324;BME280;47203;48.428;11.974;2023-03-01T05:17:32;97259.13;;;5.94;38.01
61324;BME280;47203;48.428;11.974;2023-03-01T05:19:37;97249.66;;;5.93;37.88
61324;BME280;47203;48.428;11.974;2023-03-01T05:21:44;97264.56;;;5.93;37.81
61324;BME280;47203;48.428;11.974;2023-03-01T05:24:00;97248.06;;;5.92;38.03
61324;BME280;47203;48.428;11.974;2023-03-01T05:26:05;97247.28;;;5.92;38.13
61324;BME280;47203;48.428;11.974;2023-03-01T05:28:22;97250.91;;;5.91;38.02
61324;BME280;47203;48.428;11.974;2023-03-01T05:30:27;97255.34;;;5.90;38.01
61324;BME280;47203;48.428;11.974;2023-03-01T05:32:34;97250.13;;;5.90;38.20
61324;BME280;47203;48.428;11.974;2023-03-01T05:34:38;97248.50;;;5.89;38.10
61324;BME280;47203;48.428;11.974;2023-03-01T05:36:43;97254.75;;;5.88;38.14
61324;BME280;47203;48.428;11.974;2023-03-01T05:38:47;97246.13;;;5.88;38.13
61324;BME280;47203;48.428;11.974;2023-03-01T05:40:52;97247.34;;;5.85;37.83
61324;BME280;47203;48.428;11.974;2023-03-01T05:42:56;97237.72;;;5.86;37.81
61324;BME280;47203;48.428;11.974;2023-03-01T05:45:01;97243.16;;;5.84;37.93
61324;BME280;47203;48.428;11.974;2023-03-01T05:47:05;97236.34;;;5.83;38.10
61324;BME280;47203;48.428;11.974;2023-03-01T05:49:13;97241.56;;;5.83;37.90
61324;BME280;47203;48.428;11.974;2023-03-01T05:51:17;97242.78;;;5.81;38.09
61324;BME280;47203;48.428;11.974;2023-03-01T05:53:23;97249.84;;;5.80;38.08
61324;BME280;47203;48.428;11.974;2023-03-01T05:55:28;97245.63;;;5.79;37.94
61324;BME280;47203;48.428;11.974;2023-03-01T05:57:33;97247.66;;;5.77;37.95
61324;BME280;47203;48.428;11.974;2023-03-01T05:59:38;97243.47;;;5.76;37.92
61324;BME280;47203;48.428;11.974;2023-03-01T06:01:42;97251.28;;;5.76;37.97
61324;BME280;47203;48.428;11.974;2023-03-01T06:03:47;97247.06;;;5.75;37.99
61324;BME280;47203;48.428;11.974;2023-03-01T06:05:57;97252.31;;;5.75;37.98
61324;BME280;47203;48.428;11.974;2023-03-01T06:08:02;97253.13;;;5.75;38.14
61324;BME280;47203;48.428;11.974;2023-03-01T06:10:08;97256.97;;;5.73;37.84
61324;BME280;47203;48.428;11.974;2023-03-01T06:12:12;97250.13;;;5.72;37.95
61324;BME280;47203;48.428;11.974;2023-03-01T06:14:17;97251.75;;;5.73;38.08
61324;BME280;47203;48.428;11.974;2023-03-01T06:16:22;97255.56;;;5.70;37.94
61324;BME280;47203;48.428;11.974;2023-03-01T06:18:26;97259.19;;;5.69;38.00
61324;BME280;47203;48.428;11.974;2023-03-01T06:20:31;97261.03;;;5.69;38.17
61324;BME280;47203;48.428;11.974;2023-03-01T06:22:38;97264.41;;;5.69;38.11
61324;BME280;47203;48.428;11.974;2023-03-01T06:24:43;97265.25;;;5.70;38.27
61324;BME280;47203;48.428;11.974;2023-03-01T06:26:47;97260.22;;;5.68;37.95
61324;BME280;47203;48.428;11.974;2023-03-01T06:28:52;97263.63;;;5.69;38.16
61324;BME280;47203;48.428;11.974;2023-03-01T06:30:56;97261.03;;;5.69;37.99
61324;BME280;47203;48.428;11.974;2023-03-01T06:33:00;97256.59;;;5.69;38.10
61324;BME280;47203;48.428;11.974;2023-03-01T06:35:07;97270.47;;;5.70;38.23
61324;BME280;47203;48.428;11.974;2023-03-01T06:37:12;97263.41;;;5.70;38.03
61324;BME280;47203;48.428;11.974;2023-03-01T06:39:19;97258.97;;;5.71;38.19
61324;BME280;47203;48.428;11.974;2023-03-01T06:41:24;97270.03;;;5.73;37.92
61324;BME280;47203;48.428;11.974;2023-03-01T06:43:28;97262.97;;;5.73;38.04
61324;BME280;47203;48.428;11.974;2023-03-01T06:45:32;97268.78;;;5.75;38.29
61324;BME280;47203;48.428;11.974;2023-03-01T06:47:37;97269.34;;;5.77;37.98
61324;BME280;47203;48.428;11.974;2023-03-01T06:49:42;97267.31;;;5.80;38.08
61324;BME280;47203;48.428;11.974;2023-03-01T06:51:46;97260.06;;;5.82;38.32
61324;BME280;47203;48.428;11.974;2023-03-01T06:53:50;97260.41;;;5.85;38.05
61324;BME280;47203;48.428;11.974;2023-03-01T06:55:57;97250.91;;;5.91;38.15
61324;BME280;47203;48.428;11.974;2023-03-01T06:58:02;97252.84;;;5.95;38.25
61324;BME280;47203;48.428;11.974;2023-03-01T07:00:08;97258.47;;;5.99;38.16
61324;BME280;47203;48.428;11.974;2023-03-01T07:02:13;97257.81;;;6.04;38.35
61324;BME280;47203;48.428;11.974;2023-03-01T07:04:17;97268.59;;;6.07;38.34
61324;BME280;47203;48.428;11.974;2023-03-01T07:06:23;97255.13;;;6.10;38.16
61324;BME280;47203;48.428;11.974;2023-03-01T07:08:27;97265.69;;;6.16;38.17
61324;BME280;47203;48.428;11.974;2023-03-01T07:10:32;97261.41;;;6.21;38.19
61324;BME280;47203;48.428;11.974;2023-03-01T07:12:39;97265.72;;;6.27;38.26
61324;BME280;47203;48.428;11.974;2023-03-01T07:14:44;97256.78;;;6.35;38.33
61324;BME280;47203;48.428;11.974;2023-03-01T07:16:48;97248.84;;;6.42;38.12
61324;BME280;47203;48.428;11.974;2023-03-01T07:18:53;97245.31;;;6.48;38.13
61324;BME280;47203;48.428;11.974;2023-03-01T07:21:03;97244.44;;;6.54;38.05
61324;BME280;47203;48.428;11.974;2023-03-01T07:23:08;97241.72;;;6.61;38.13
61324;BME280;47203;48.428;11.974;2023-03-01T07:25:12;97245.25;;;6.67;38.29
61324;BME280;47203;48.428;11.974;2023-03-01T07:27:17;97242.75;;;6.72;38.36
61324;BME280;47203;48.428;11.974;2023-03-01T07:29:24;97241.84;;;6.78;38.20
61324;BME280;47203;48.428;11.974;2023-03-01T07:31:30;97234.69;;;6.85;38.31
61324;BME280;47203;48.428;11.974;2023-03-01T07:33:34;97242.41;;;6.92;38.12
61324;BME280;47203;48.428;11.974;2023-03-01T07:35:39;97240.84;;;7.03;38.31
61324;BME280;47203;48.428;11.974;2023-03-01T07:37:43;97241.84;;;7.13;38.33
61324;BME280;47203;48.428;11.974;2023-03-01T07:39:48;97236.03;;;7.23;38.29
61324;BME280;47203;48.428;11.974;2023-03-01T07:41:52;97240.72;;;7.33;38.04
61324;BME280;47203;48.428;11.974;2023-03-01T07:43:57;97239.09;;;7.44;38.26
61324;BME280;47203;48.428;11.974;2023-03-01T07:46:04;97243.97;;;7.52;38.21
61324;BME280;47203;48.428;11.974;2023-03-01T07:48:09;97239.97;;;7.61;38.06
61324;BME280;47203;48.428;11.974;2023-03-01T07:50:13;97235.38;;;7.68;38.17
61324;BME280;47203;48.428;11.974;2023-03-01T07:52:18;97231.34;;;7.78;38.21
61324;BME280;47203;48.428;11.974;2023-03-01T07:54:25;97223.38;;;7.84;38.05
61324;BME280;47203;48.428;11.974;2023-03-01T07:56:30;97229.59;;;7.95;38.23
61324;BME280;47203;48.428;11.974;2023-03-01T07:58:35;97226.13;;;8.07;38.17
61324;BME280;47203;48.428;11.974;2023-03-01T08:00:40;97233.94;;;8.18;38.10
61324;BME280;47203;48.428;11.974;2023-03-01T08:02:47;97231.81;;;8.32;38.10
61324;BME280;47203;48.428;11.974;2023-03-01T08:04:52;97235.75;;;8.47;38.04
61324;BME280;47203;48.428;11.974;2023-03-01T08:06:56;97229.09;;;8.56;37.97
61324;BME280;47203;48.428;11.974;2023-03-01T08:09:01;97225.81;;;8.66;37.97
61324;BME280;47203;48.428;11.974;2023-03-01T08:11:06;97220.94;;;8.74;37.88
61324;BME280;47203;48.428;11.974;2023-03-01T08:13:11;97217.16;;;8.82;37.92
61324;BME280;47203;48.428;11.974;2023-03-01T08:15:16;97225.41;;;8.91;37.97
61324;BME280;47203;48.428;11.974;2023-03-01T08:17:21;97214.47;;;8.99;37.84
61324;BME280;47203;48.428;11.974;2023-03-01T08:19:28;97218.78;;;9.05;37.52
61324;BME280;47203;48.428;11.974;2023-03-01T08:21:33;97219.88;;;9.09;37.64
61324;BME280;47203;48.428;11.974;2023-03-01T08:23:38;97213.97;;;9.19;37.65
61324;BME280;47203;48.428;11.974;2023-03-01T08:25:43;97208.84;;;9.30;37.89
61324;BME280;47203;48.428;11.974;2023-03-01T08:27:48;97216.06;;;9.39;37.72
61324;BME280;47203;48.428;11.974;2023-03-01T08:29:52;97213.56;;;9.50;37.39
61324;BME280;47203;48.428;11.974;2023-03-01T08:31:56;97214.47;;;9.60;37.70
61324;BME280;47203;48.428;11.974;2023-03-01T08:34:02;97205.13;;;9.70;37.47
61324;BME280;47203;48.428;11.974;2023-03-01T08:36:09;97208.66;;;9.81;37.33
61324;BME280;47203;48.428;11.974;2023-03-01T08:38:14;97205.88;;;9.92;37.54
61324;BME280;47203;48.428;11.974;2023-03-01T08:40:18;97213.09;;;10.02;37.33
61324;BME280;47203;48.428;11.974;2023-03-01T08:42:23;97209.53;;;10.13;37.28
61324;BME280;47203;48.428;11.974;2023-03-01T08:44:28;97207.78;;;10.24;37.37
61324;BME280;47203;48.428;11.974;2023-03-01T08:46:33;97204.22;;;10.36;37.29
61324;BME280;47203;48.428;11.974;2023-03-01T08:48:38;97206.38;;;10.44;36.78
61324;BME280;47203;48.428;11.974;2023-03-01T08:50:44;97201.22;;;10.54;36.80
61324;BME280;47203;48.428;11.974;2023-03-01T08:52:51;97207.09;;;10.67;36.85
61324;BME280;47203;48.428;11.974;2023-03-01T08:54:56;97208.50;;;10.79;36.98
61324;BME280;47203;48.428;11.974;2023-03-01T08:57:02;97195.41;;;10.90;36.09
61324;BME280;47203;48.428;11.974;2023-03-01T08:59:07;97194.13;;;10.97;36.17
61324;BME280;47203;48.428;11.974;2023-03-01T09:01:14;97204.44;;;11.04;36.03
61324;BME280;47203;48.428;11.974;2023-03-01T09:03:18;97199.72;;;11.06;36.02
61324;BME280;47203;48.428;11.974;2023-03-01T09:05:23;97196.53;;;11.04;36.00
61324;BME280;47203;48.428;11.974;2023-03-01T09:07:27;97189.94;;;11.02;35.98
61324;BME280;47203;48.428;11.974;2023-03-01T09:09:35;97185.97;;;10.99;35.99
61324;BME280;47203;48.428;11.974;2023-03-01T09:11:39;97190.16;;;10.95;36.17
61324;BME280;47203;48.428;11.974;2023-03-01T09:13:44;97194.63;;;10.94;35.71
61324;BME280;47203;48.428;11.974;2023-03-01T09:15:48;97180.13;;;10.92;36.13
61324;BME280;47203;48.428;11.974;2023-03-01T09:17:53;97179.59;;;10.90;36.11
61324;BME280;47203;48.428;11.974;2023-03-01T09:19:57;97184.63;;;10.91;36.20
61324;BME280;47203;48.428;11.974;2023-03-01T09:22:02;97188.59;;;10.94;36.07
61324;BME280;47203;48.428;11.974;2023-03-01T09:24:11;97183.84;;;10.96;36.06
61324;BME280;47203;48.428;11.974;2023-03-01T09:26:19;97178.31;;;10.97;36.31
61324;BME280;47203;48.428;11.974;2023-03-01T09:28:24;97183.34;;;10.99;36.44
61324;BME280;47203;48.428;11.974;2023-03-01T09:30:30;97181.00;;;11.03;36.09
61324;BME280;47203;48.428;11.974;2023-03-01T09:32:35;97192.84;;;11.05;36.03
61324;BME280;47203;48.428;11.974;2023-03-01T09:34:39;97182.88;;;11.07;36.11
61324;BME280;47203;48.428;11.974;2023-03-01T09:36:57;97181.81;;;11.08;36.06
61324;BME280;47203;48.428;11.974;2023-03-01T09:39:03;97177.09;;;11.10;35.70
61324;BME280;47203;48.428;11.974;2023-03-01T09:41:09;97173.41;;;11.11;35.98
61324;BME280;47203;48.428;11.974;2023-03-01T09:43:18;97180.25;;;11.12;36.13
61324;BME280;47203;48.428;11.974;2023-03-01T09:45:27;97163.13;;;11.15;35.76
61324;BME280;47203;48.428;11.974;2023-03-01T09:47:33;97173.41;;;11.16;35.76
61324;BME280;47203;48.428;11.974;2023-03-01T09:49:39;97163.69;;;11.17;36.00
61324;BME280;47203;48.428;11.974;2023-03-01T09:51:54;97167.88;;;11.18;36.14
61324;BME280;47203;48.428;11.974;2023-03-01T09:54:00;97158.69;;;11.21;35.94
61324;BME280;47203;48.428;11.974;2023-03-01T09:56:05;97163.69;;;11.22;35.99
61324;BME280;47203;48.428;11.974;2023-03-01T09:58:27;97166.63;;;11.26;35.92
61324;BME280;47203;48.428;11.974;2023-03-01T10:00:37;97165.03;;;11.30;36.04
61324;BME280;47203;48.428;11.974;2023-03-01T10:02:43;97165.59;;;11.32;36.04
61324;BME280;47203;48.428;11.974;2023-03-01T10:04:49;97162.44;;;11.35;35.79
61324;BME280;47203;48.428;11.974;2023-03-01T10:06:57;97161.41;;;11.36;35.50
61324;BME280;47203;48.428;11.974;2023-03-01T10:09:07;97152.16;;;11.39;35.63
61324;BME280;47203;48.428;11.974;2023-03-01T10:11:20;97146.88;;;11.39;35.88
61324;BME280;47203;48.428;11.974;2023-03-01T10:13:29;97147.44;;;11.41;35.64
61324;BME280;47203;48.428;11.974;2023-03-01T10:15:39;97149.00;;;11.42;35.53
61324;BME280;47203;48.428;11.974;2023-03-01T10:17:46;97140.59;;;11.45;35.60
61324;BME280;47203;48.428;11.974;2023-03-01T10:19:52;97138.22;;;11.48;35.73
61324;BME280;47203;48.428;11.974;2023-03-01T10:22:00;97147.22;;;11.52;35.44
61324;BME280;47203;48.428;11.974;2023-03-01T10:24:08;97141.41;;;11.56;35.46
61324;BME280;47203;48.428;11.974;2023-03-01T10:28:41;97119.81;;;11.64;35.65
61324;BME280;47203;48.428;11.974;2023-03-01T10:30:48;97125.63;;;11.66;35.35
61324;BME280;47203;48.428;11.974;2023-03-01T10:32:53;97125.34;;;11.67;35.17
61324;BME280;47203;48.428;11.974;2023-03-01T10:34:58;97136.97;;;11.72;35.52
61324;BME280;47203;48.428;11.974;2023-03-01T10:37:08;97133.81;;;11.75;35.38
61324;BME280;47203;48.428;11.974;2023-03-01T10:39:14;97117.72;;;11.76;35.13
61324;BME280;47203;48.428;11.974;2023-03-01T10:41:20;97116.94;;;11.81;35.01
61324;BME280;47203;48.428;11.974;2023-03-01T10:43:24;97118.53;;;11.82;35.02
61324;BME280;47203;48.428;11.974;2023-03-01T10:45:33;97099.03;;;11.83;34.81
61324;BME280;47203;48.428;11.974;2023-03-01T10:47:38;97107.72;;;11.83;35.05
61324;BME280;47203;48.428;11.974;2023-03-01T10:49:51;97104.03;;;11.84;35.08
61324;BME280;47203;48.428;11.974;2023-03-01T10:51:55;97100.88;;;11.87;35.33
61324;BME280;47203;48.428;11.974;2023-03-01T10:54:00;97082.91;;;11.90;35.25
61324;BME280;47203;48.428;11.974;2023-03-01T10:56:06;97080.59;;;11.93;35.28
61324;BME280;47203;48.428;11.974;2023-03-01T10:58:18;97078.22;;;11.97;35.67
61324;BME280;47203;48.428;11.974;2023-03-01T11:00:24;97077.41;;;12.01;35.63
61324;BME280;47203;48.428;11.974;2023-03-01T11:02:32;97067.13;;;12.05;35.62
61324;BME280;47203;48.428;11.974;2023-03-01T11:04:38;97071.88;;;12.08;35.55
61324;BME280;47203;48.428;11.974;2023-03-01T11:06:43;97071.09;;;12.13;35.66